Terminal Aerodrome Forecast
Issued by NWS Pittsburgh, PA

Current Version | Previous Version | Text Only | Print | Product List | Glossary Off
Versions: 1 2 3 4 5 6 7 8 9 10 11 12 13 14 15 16 17 18 19 20 21 22 23 24 25 26 27 28 29 30 31 32 33 34 35

598
FTUS41 KPBZ 112320
TAFPIT
TAF
KPIT 112320Z 1200/1306 29011KT P6SM FEW045 SCT060
     FM120400 23003KT P6SM SCT040
     FM122000 25008KT P6SM BKN020 PROB30 1220/1224 4SM -SHSN BKN010
     FM130000 28015KT 4SM -SHSN BKN015 PROB30 1303/1306 1SM -SN
      BKN007=

USA.gov is the U.S. government's official web portal to all federal, state and local government web resources and services.